UKWW/VIN METAR and TAF weather

Enter ICAO airport designator
Station Type Date Time Source
UKWW METAR 2021/05/11 16:00 UTC NOAA

UKWW 111600Z 05004MPS 030V100 CAVOK 22/05 Q1017 R13/0///65 NOSIG


Station Type Date Time Source
UKWW Decoded METAR 2021/05/11 16:00 UTC NOAA

Station name not available
May 11, 2021 - 12:00 PM EDT / 2021.05.11 1600 UTC
Wind: from the NE (050 degrees) at 9 MPH (8 KT) (direction variable):0
Visibility: greater than 7 mile(s):0
Temperature: 71 F (22 C)
Dew Point: 41 F (5 C)
Relative Humidity: 32%
Pressure (altimeter): 30.03 in. Hg (1017 hPa)
ob: UKWW 111600Z 05004MPS 030V100 CAVOK 22/05 Q1017 R13/0///65 NOSIG
cycle: 16

Station Type Date Time Source
UKWW TAF 2010/03/21 10:45 UTC NOAA

TAF UKWW 211045Z 2112/2212 24005G10MPS 9999 SCT020 BKN070
TEMPO 2115/2207 1400 -SHRA BR SCT004 BKN007CB
FM220700 34007G12MPS 9999 SCT015 BKN100 TX11/2112Z TN01/2204Z

Example: see airport list